Time;durP1;ratioP1;P1;durP2;ratioP2;P2;SDS_P1;SDS_P2;PMS_P1;PMS_P2;Temp;Humidity;BMP_temperature;BMP_pressure;BME280_temperature;BME280_humidity;BME280_pressure;Samples;Min_cycle;Max_cycle;Signal;HPM_P1;HPM_P2
2021/04/25 00:00:00;;;;;;;7.28;3.08;;;24.50;65.30;;;;;;5088726;28;20384;-77
2021/04/25 00:02:27;;;;;;;6.03;2.80;;;24.80;67.00;;;;;;5087375;28;20859;-77
2021/04/25 00:04:54;;;;;;;5.20;2.80;;;24.40;64.30;;;;;;5088566;28;20427;-76
2021/04/25 00:07:21;;;;;;;4.90;2.90;;;23.50;65.30;;;;;;5088812;28;20483;-77
2021/04/25 00:09:47;;;;;;;6.90;3.10;;;21.60;70.30;;;;;;5088523;28;20719;-76
2021/04/25 00:12:14;;;;;;;4.80;2.67;;;20.60;74.10;;;;;;5088487;28;20373;-79
2021/04/25 00:14:41;;;;;;;5.90;2.97;;;20.00;75.70;;;;;;5087412;28;20784;-78
2021/04/25 00:17:09;;;;;;;5.15;2.80;;;19.50;78.40;;;;;;5088338;28;20403;-78
2021/04/25 00:19:36;;;;;;;5.15;2.70;;;18.70;80.00;;;;;;5088976;28;21219;-78
2021/04/25 00:22:03;;;;;;;5.70;2.72;;;18.40;81.80;;;;;;5077472;28;20421;-77
2021/04/25 00:24:31;;;;;;;6.05;3.15;;;18.20;81.80;;;;;;5080156;28;20434;-77
2021/04/25 00:26:58;;;;;;;6.13;3.20;;;18.00;83.10;;;;;;5088873;28;20373;-78
2021/04/25 00:29:25;;;;;;;6.45;2.90;;;17.90;86.00;;;;;;5089633;28;20383;-79
2021/04/25 00:31:52;;;;;;;5.72;2.90;;;17.90;87.30;;;;;;5089697;28;20381;-78
2021/04/25 00:34:19;;;;;;;6.55;2.92;;;17.80;85.70;;;;;;5088365;28;20478;-78
2021/04/25 00:36:47;;;;;;;8.52;2.78;;;17.80;87.00;;;;;;5088727;28;20426;-78
2021/04/25 00:39:14;;;;;;;6.07;3.28;;;18.10;87.80;;;;;;5088693;28;20420;-78
2021/04/25 00:41:41;;;;;;;5.53;2.70;;;18.20;88.20;;;;;;5092018;28;20379;-78
2021/04/25 00:44:11;;;;;;;4.90;2.63;;;18.00;90.30;;;;;;5092153;28;20380;-78
2021/04/25 00:46:41;;;;;;;6.45;2.42;;;17.90;90.80;;;;;;5092490;28;21223;-77
2021/04/25 00:49:08;;;;;;;6.05;2.50;;;17.80;91.20;;;;;;5092745;28;20412;-78
2021/04/25 00:51:35;;;;;;;8.05;2.75;;;17.80;91.60;;;;;;5092034;28;20392;-78
2021/04/25 00:54:05;;;;;;;5.80;2.80;;;17.80;91.40;;;;;;5092282;28;20934;-78
2021/04/25 00:56:33;;;;;;;5.80;2.72;;;17.80;91.80;;;;;;5092201;28;20371;-78
2021/04/25 00:59:00;;;;;;;4.47;2.40;;;17.80;91.60;;;;;;5092387;28;20375;-78
2021/04/25 01:01:27;;;;;;;6.70;2.72;;;18.20;92.40;;;;;;5091795;28;20408;-77
2021/04/25 01:03:57;;;;;;;6.35;2.55;;;18.50;92.10;;;;;;5092036;28;20376;-77
2021/04/25 01:06:24;;;;;;;5.88;2.13;;;18.30;92.50;;;;;;5092171;28;20411;-77
2021/04/25 01:08:51;;;;;;;3.92;1.73;;;18.30;92.90;;;;;;5091524;28;20425;-78
2021/04/25 01:11:18;;;;;;;5.60;2.17;;;18.20;93.40;;;;;;5091994;28;20380;-78
2021/04/25 01:13:50;;;;;;;4.27;1.87;;;18.10;92.70;;;;;;5091549;28;20372;-78
2021/04/25 01:16:18;;;;;;;5.67;2.23;;;18.00;93.90;;;;;;5091746;28;20378;-77
2021/04/25 01:18:45;;;;;;;7.13;2.10;;;18.10;94.30;;;;;;5090439;28;20388;-77
2021/04/25 01:21:12;;;;;;;7.20;2.50;;;18.00;93.30;;;;;;5091807;28;20439;-78
2021/04/25 01:23:39;;;;;;;5.88;2.03;;;18.00;94.00;;;;;;5090910;28;20742;-77
2021/04/25 01:26:07;;;;;;;5.10;2.30;;;18.00;94.30;;;;;;5091590;28;20475;-78
2021/04/25 01:28:34;;;;;;;6.05;2.65;;;18.10;93.90;;;;;;5091336;28;20376;-78
2021/04/25 01:31:01;;;;;;;2.75;1.90;;;18.10;93.70;;;;;;5091712;28;20404;-77
2021/04/25 01:33:28;;;;;;;6.82;2.30;;;18.10;94.30;;;;;;5091339;28;20388;-77
2021/04/25 01:35:55;;;;;;;6.32;2.20;;;18.10;93.90;;;;;;5091714;28;20890;-79
2021/04/25 01:38:23;;;;;;;5.47;2.22;;;18.20;93.80;;;;;;5090026;28;20404;-78
2021/04/25 01:40:50;;;;;;;4.57;2.05;;;18.00;93.40;;;;;;5109459;28;20424;-77
2021/04/25 01:43:17;;;;;;;6.13;2.33;;;17.90;93.90;;;;;;5101654;28;20788;-78
2021/04/25 01:45:44;;;;;;;5.88;2.20;;;18.00;94.70;;;;;;5091545;28;20449;-78
2021/04/25 01:48:11;;;;;;;5.75;2.10;;;17.90;93.40;;;;;;5091255;28;20364;-78
2021/04/25 01:50:39;;;;;;;7.03;2.10;;;17.80;94.40;;;;;;5090314;28;20397;-79
2021/04/25 01:53:07;;;;;;;8.63;1.90;;;18.10;94.10;;;;;;5090429;28;20380;-78
2021/04/25 01:55:36;;;;;;;6.78;2.03;;;18.30;93.50;;;;;;5090079;28;20373;-77
2021/04/25 01:58:05;;;;;;;6.63;1.85;;;18.60;92.70;;;;;;5089773;28;20373;-78
2021/04/25 02:00:43;;;;;;;4.90;1.90;;;18.50;92.80;;;;;;5091074;28;20451;-78
2021/04/25 02:03:12;;;;;;;5.05;1.52;;;18.40;94.00;;;;;;5090777;28;20467;-77
2021/04/25 02:05:40;;;;;;;6.90;1.92;;;18.30;93.80;;;;;;5090447;28;20419;-77
2021/04/25 02:08:09;;;;;;;4.13;1.95;;;18.10;93.80;;;;;;5091044;28;20364;-77
2021/04/25 02:10:36;;;;;;;4.40;2.05;;;18.00;93.60;;;;;;5090500;28;20396;-77
2021/04/25 02:13:04;;;;;;;4.70;2.20;;;17.80;93.20;;;;;;5079771;28;20391;-78
2021/04/25 02:15:32;;;;;;;5.75;1.70;;;17.60;93.10;;;;;;5086074;28;20755;-77
2021/04/25 02:17:59;;;;;;;4.07;1.80;;;17.60;93.50;;;;;;5090144;28;20845;-77
2021/04/25 02:20:26;;;;;;;3.70;1.67;;;17.50;93.90;;;;;;5090047;28;20416;-78
2021/04/25 02:22:54;;;;;;;5.13;1.77;;;17.40;93.30;;;;;;5090716;28;20945;-78
2021/04/25 02:25:22;;;;;;;4.38;1.77;;;17.40;94.30;;;;;;5090438;28;20479;-78
2021/04/25 02:27:50;;;;;;;7.43;1.90;;;17.40;94.30;;;;;;5090715;28;20380;-78
2021/04/25 02:30:27;;;;;;;5.25;1.63;;;17.50;93.70;;;;;;5090216;28;20385;-78
2021/04/25 02:32:55;;;;;;;5.00;1.80;;;17.70;93.80;;;;;;5089714;28;20380;-78
2021/04/25 02:35:23;;;;;;;5.55;1.55;;;18.00;92.40;;;;;;5090075;28;20751;-78
2021/04/25 02:37:51;;;;;;;4.03;2.00;;;18.20;92.90;;;;;;5089076;28;20398;-78
2021/04/25 02:40:21;;;;;;;6.30;1.60;;;18.40;91.80;;;;;;5086562;28;20399;-77
2021/04/25 02:42:49;;;;;;;4.05;1.42;;;18.50;91.70;;;;;;5079648;28;20881;-79
2021/04/25 02:45:19;;;;;;;5.78;1.90;;;18.70;91.90;;;;;;5088293;28;20415;-78
2021/04/25 02:47:52;;;;;;;3.95;1.63;;;18.80;92.10;;;;;;5086750;28;20392;-78
2021/04/25 02:50:22;;;;;;;4.87;1.60;;;18.90;91.00;;;;;;5090222;28;20484;-78
2021/04/25 02:52:49;;;;;;;9.80;2.03;;;19.10;91.10;;;;;;5089875;28;20364;-78
2021/04/25 02:55:17;;;;;;;5.43;1.70;;;19.20;90.90;;;;;;5089555;28;20388;-78
2021/04/25 02:57:44;;;;;;;5.43;1.67;;;19.30;91.40;;;;;;5089831;28;20407;-79
2021/04/25 03:00:15;;;;;;;4.18;1.65;;;19.40;91.10;;;;;;5090115;28;20380;-79
2021/04/25 03:02:42;;;;;;;4.30;1.33;;;19.50;88.40;;;;;;5097627;28;20384;-79
2021/04/25 03:05:11;;;;;;;2.85;1.33;;;19.20;88.50;;;;;;5087290;28;20414;-79
2021/04/25 03:07:38;;;;;;;4.30;1.52;;;19.20;90.20;;;;;;5089429;28;20377;-79
2021/04/25 03:10:09;;;;;;;5.38;1.88;;;19.00;90.30;;;;;;5097515;28;20408;-79
2021/04/25 03:12:37;;;;;;;4.40;1.40;;;18.70;89.70;;;;;;5105788;28;20435;-78
2021/04/25 03:15:06;;;;;;;4.95;1.70;;;18.50;90.80;;;;;;5089629;28;20376;-79
2021/04/25 03:17:33;;;;;;;4.20;1.60;;;18.20;91.20;;;;;;5088689;28;20402;-78
2021/04/25 03:20:01;;;;;;;4.55;1.90;;;18.00;92.20;;;;;;5088507;28;20825;-78
2021/04/25 03:22:28;;;;;;;4.07;1.50;;;17.90;92.50;;;;;;5087677;28;20445;-78
2021/04/25 03:24:55;;;;;;;6.45;1.92;;;18.00;92.00;;;;;;5077345;28;20400;-78
2021/04/25 03:27:22;;;;;;;3.28;1.63;;;18.10;92.00;;;;;;5087765;28;20408;-78
2021/04/25 03:29:49;;;;;;;4.75;1.70;;;18.10;91.70;;;;;;5083573;28;20391;-78
2021/04/25 03:32:16;;;;;;;3.63;1.50;;;18.40;91.70;;;;;;5087281;28;20398;-78
2021/04/25 03:34:43;;;;;;;5.77;1.77;;;18.60;90.40;;;;;;5075139;28;20484;-78
2021/04/25 03:37:10;;;;;;;3.77;1.63;;;18.70;90.80;;;;;;5079753;28;20424;-78
2021/04/25 03:39:37;;;;;;;5.45;1.92;;;18.70;89.20;;;;;;5084421;28;20384;-78
2021/04/25 03:42:05;;;;;;;6.32;1.88;;;18.60;90.20;;;;;;5080805;28;20392;-78
2021/04/25 03:44:32;;;;;;;4.90;1.60;;;18.70;88.60;;;;;;5079717;28;20803;-78
2021/04/25 03:46:59;;;;;;;3.10;1.48;;;18.70;88.60;;;;;;5079805;28;20415;-78
2021/04/25 03:49:26;;;;;;;5.20;1.40;;;18.90;88.60;;;;;;5073989;28;20394;-78
2021/04/25 03:51:55;;;;;;;4.65;1.33;;;19.00;86.60;;;;;;5070355;28;20401;-79
2021/04/25 03:54:23;;;;;;;6.65;1.55;;;19.00;87.80;;;;;;5072800;28;20742;-78
2021/04/25 03:56:51;;;;;;;4.25;1.52;;;19.10;87.10;;;;;;5084290;28;20393;-78
2021/04/25 03:59:18;;;;;;;5.35;1.80;;;19.00;86.50;;;;;;5084213;28;20380;-77
2021/04/25 04:01:45;;;;;;;4.82;1.42;;;19.00;86.50;;;;;;5084567;28;20400;-78
2021/04/25 04:04:12;;;;;;;2.47;1.20;;;19.10;87.00;;;;;;5074260;28;20390;-78
2021/04/25 04:06:39;;;;;;;3.53;1.20;;;19.20;83.70;;;;;;5071334;28;20406;-78
2021/04/25 04:09:06;;;;;;;3.07;1.20;;;19.30;84.80;;;;;;5088545;28;20387;-77
2021/04/25 04:11:34;;;;;;;6.88;1.45;;;19.30;86.20;;;;;;5074867;28;20386;-77
2021/04/25 04:14:01;;;;;;;2.80;1.42;;;19.50;82.80;;;;;;5068305;28;20804;-78
2021/04/25 04:16:28;;;;;;;3.45;1.60;;;19.30;85.90;;;;;;5083453;28;20392;-77
2021/04/25 04:18:55;;;;;;;5.07;1.27;;;19.20;86.30;;;;;;5093160;28;20450;-78
2021/04/25 04:21:22;;;;;;;3.25;1.55;;;19.40;86.60;;;;;;5089371;28;20781;-77
2021/04/25 04:23:48;;;;;;;2.50;1.30;;;19.40;86.60;;;;;;5088198;28;20389;-77
2021/04/25 04:26:16;;;;;;;2.72;1.20;;;19.50;86.30;;;;;;5092482;28;20396;-78
2021/04/25 04:28:43;;;;;;;3.80;1.52;;;19.70;85.20;;;;;;5091876;28;20897;-77
2021/04/25 04:31:10;;;;;;;2.92;1.40;;;19.70;85.50;;;;;;5090526;28;20403;-78
2021/04/25 04:33:37;;;;;;;3.20;1.20;;;19.80;84.70;;;;;;5091781;28;20518;-78
2021/04/25 04:36:06;;;;;;;4.30;1.58;;;19.80;85.20;;;;;;5091906;28;20368;-78
2021/04/25 04:38:33;;;;;;;3.43;1.30;;;19.80;84.00;;;;;;5092022;28;20439;-78
2021/04/25 04:41:00;;;;;;;2.42;1.08;;;19.70;84.20;;;;;;5084415;28;20485;-76
2021/04/25 04:43:28;;;;;;;2.55;1.23;;;19.70;84.20;;;;;;5089209;28;20444;-76
2021/04/25 04:45:55;;;;;;;3.80;1.30;;;19.80;82.50;;;;;;5088951;28;20416;-77
2021/04/25 04:48:22;;;;;;;3.22;1.30;;;19.80;82.40;;;;;;5080589;28;20448;-76
2021/04/25 04:50:49;;;;;;;2.45;1.10;;;19.80;82.40;;;;;;5089534;28;20491;-76
2021/04/25 04:53:16;;;;;;;2.67;1.27;;;19.80;82.60;;;;;;5091087;28;20379;-76
2021/04/25 04:55:43;;;;;;;4.07;1.35;;;19.80;86.60;;;;;;5091406;28;20388;-76
2021/04/25 04:58:10;;;;;;;6.20;1.58;;;19.60;90.90;;;;;;5089062;28;20417;-76
2021/04/25 05:00:37;;;;;;;4.82;1.55;;;19.40;93.30;;;;;;5085734;28;20380;-76
2021/04/25 05:03:04;;;;;;;2.38;1.00;;;19.20;95.50;;;;;;5091619;28;20372;-76
2021/04/25 05:05:31;;;;;;;6.53;1.70;;;19.10;96.10;;;;;;5091331;28;20767;-77
2021/04/25 05:07:58;;;;;;;5.00;1.70;;;19.00;96.40;;;;;;5080596;28;20496;-77
2021/04/25 05:10:26;;;;;;;5.22;1.35;;;18.90;97.20;;;;;;5089780;28;20490;-77
2021/04/25 05:12:53;;;;;;;4.95;1.70;;;18.70;97.80;;;;;;5091842;28;20376;-77
2021/04/25 05:15:20;;;;;;;3.17;1.30;;;18.40;98.70;;;;;;5078708;28;20480;-78
2021/04/25 05:17:47;;;;;;;8.75;1.60;;;18.20;99.50;;;;;;5071399;28;20385;-77
2021/04/25 05:20:14;;;;;;;7.10;1.63;;;18.10;99.90;;;;;;5082827;28;20416;-78
2021/04/25 05:22:41;;;;;;;4.25;1.30;;;18.00;99.90;;;;;;5077964;28;20459;-77
2021/04/25 05:25:09;;;;;;;6.90;1.40;;;17.80;99.90;;;;;;5079706;28;20401;-77
2021/04/25 05:27:36;;;;;;;5.20;1.27;;;17.70;99.90;;;;;;5070868;28;20760;-78
2021/04/25 05:30:04;;;;;;;4.05;1.40;;;17.60;99.90;;;;;;5088061;28;20396;-76
2021/04/25 05:32:32;;;;;;;5.37;1.20;;;17.50;99.90;;;;;;5091598;28;20416;-77
2021/04/25 05:34:59;;;;;;;6.18;1.70;;;17.60;99.90;;;;;;5089109;28;20450;-78
2021/04/25 05:37:26;;;;;;;5.70;1.37;;;17.60;99.90;;;;;;5088058;28;20428;-77
2021/04/25 05:39:53;;;;;;;3.93;1.30;;;17.50;99.90;;;;;;5083416;28;20390;-77
2021/04/25 05:42:20;;;;;;;3.80;1.30;;;17.50;99.90;;;;;;5086241;28;21141;-77
2021/04/25 05:44:48;;;;;;;5.07;1.50;;;17.40;99.90;;;;;;5086334;28;20404;-77
2021/04/25 05:47:15;;;;;;;6.63;1.38;;;17.40;99.90;;;;;;5085427;28;20893;-77
2021/04/25 05:49:42;;;;;;;5.13;1.20;;;17.40;99.90;;;;;;5074092;28;20410;-77
2021/04/25 05:52:09;;;;;;;4.32;1.30;;;17.40;99.90;;;;;;5077770;28;20497;-77
2021/04/25 05:54:36;;;;;;;4.68;1.10;;;17.50;99.90;;;;;;5087338;28;20906;-77
2021/04/25 05:57:06;;;;;;;3.87;1.47;;;17.50;99.90;;;;;;5083837;28;20398;-77
2021/04/25 05:59:34;;;;;;;5.03;1.23;;;17.60;99.90;;;;;;5078763;28;20873;-77
2021/04/25 06:02:01;;;;;;;5.85;1.30;;;17.70;99.90;;;;;;5081286;28;20408;-78
2021/04/25 06:04:27;;;;;;;3.85;1.10;;;17.70;99.90;;;;;;5076867;28;20388;-78
2021/04/25 06:06:54;;;;;;;4.47;1.20;;;17.70;99.90;;;;;;5084580;28;20495;-77
2021/04/25 06:09:24;;;;;;;6.20;1.20;;;17.60;99.90;;;;;;5080336;28;20420;-78
2021/04/25 06:11:52;;;;;;;4.93;1.17;;;17.50;99.90;;;;;;5086054;28;21115;-77
2021/04/25 06:14:19;;;;;;;5.57;1.30;;;17.40;99.90;;;;;;5074717;28;20437;-78
2021/04/25 06:16:46;;;;;;;4.20;1.23;;;17.30;99.90;;;;;;5076203;28;20394;-78
2021/04/25 06:19:13;;;;;;;5.50;1.40;;;17.20;99.90;;;;;;5074970;28;20743;-78
2021/04/25 06:21:40;;;;;;;3.88;1.40;;;17.00;99.90;;;;;;5084263;28;20423;-77
2021/04/25 06:24:08;;;;;;;3.53;1.20;;;16.90;99.90;;;;;;5076084;28;20394;-78
2021/04/25 06:26:34;;;;;;;5.30;1.20;;;16.80;99.90;;;;;;5083218;28;20898;-78
2021/04/25 06:29:01;;;;;;;4.20;1.70;;;16.80;99.90;;;;;;5088690;28;20396;-79
2021/04/25 06:31:29;;;;;;;7.18;1.75;;;16.70;99.90;;;;;;5090409;28;20391;-78
2021/04/25 06:33:57;;;;;;;4.75;1.40;;;16.60;99.90;;;;;;5087478;28;20380;-77
2021/04/25 06:36:24;;;;;;;6.03;1.50;;;16.60;99.90;;;;;;5089939;28;20388;-77
2021/04/25 06:38:51;;;;;;;6.55;1.27;;;16.60;99.90;;;;;;5091927;28;20420;-77
2021/04/25 06:41:24;;;;;;;5.75;1.40;;;16.50;99.90;;;;;;5090263;28;20377;-77
2021/04/25 06:43:51;;;;;;;4.72;1.30;;;16.50;99.90;;;;;;5090010;28;20360;-77
2021/04/25 06:46:18;;;;;;;8.18;1.50;;;16.50;99.90;;;;;;5089459;28;20498;-77
2021/04/25 06:48:45;;;;;;;6.17;1.63;;;16.40;99.90;;;;;;5089891;28;20851;-77
2021/04/25 06:51:14;;;;;;;7.33;1.47;;;16.40;99.90;;;;;;5087699;28;20410;-77
2021/04/25 06:53:42;;;;;;;4.43;1.23;;;16.30;99.90;;;;;;5069743;28;20477;-78
2021/04/25 06:56:09;;;;;;;8.88;1.65;;;16.20;99.90;;;;;;5082439;28;20785;-77
2021/04/25 06:58:36;;;;;;;5.25;1.52;;;16.20;99.90;;;;;;5084762;28;20390;-78
2021/04/25 07:01:03;;;;;;;5.65;1.38;;;16.20;99.90;;;;;;5078829;28;20755;-78
2021/04/25 07:03:30;;;;;;;5.67;1.60;;;16.10;99.90;;;;;;5091128;28;20376;-77
2021/04/25 07:05:57;;;;;;;5.40;1.20;;;16.00;99.90;;;;;;5091798;28;20405;-78
2021/04/25 07:08:25;;;;;;;7.88;1.42;;;16.00;99.90;;;;;;5079227;28;20752;-78
2021/04/25 07:10:54;;;;;;;7.00;1.50;;;15.90;99.90;;;;;;5069486;28;21441;-77
2021/04/25 07:13:22;;;;;;;4.93;1.67;;;15.90;99.90;;;;;;5085692;28;20391;-77
2021/04/25 07:15:49;;;;;;;6.68;1.60;;;15.80;99.90;;;;;;5089422;28;20405;-77
2021/04/25 07:18:16;;;;;;;6.32;1.40;;;15.80;99.90;;;;;;5086337;28;20377;-78
2021/04/25 07:20:43;;;;;;;8.00;1.35;;;15.70;99.90;;;;;;5078613;28;20943;-77
2021/04/25 07:23:11;;;;;;;8.63;2.00;;;15.70;99.90;;;;;;5078376;28;20399;-78
2021/04/25 07:25:38;;;;;;;8.32;2.10;;;15.60;99.90;;;;;;5089021;28;20404;-77
2021/04/25 07:28:05;;;;;;;5.18;1.88;;;15.60;99.90;;;;;;5083656;28;20448;-77
2021/04/25 07:30:32;;;;;;;6.88;1.83;;;15.50;99.90;;;;;;5086478;28;20851;-78
2021/04/25 07:32:59;;;;;;;7.55;2.08;;;15.40;99.90;;;;;;5077652;28;20399;-77
2021/04/25 07:35:26;;;;;;;6.13;2.00;;;15.40;99.90;;;;;;5082228;28;20405;-77
2021/04/25 07:37:53;;;;;;;7.45;1.90;;;15.40;99.90;;;;;;5080548;28;20432;-77
2021/04/25 07:40:20;;;;;;;8.48;2.20;;;15.30;99.90;;;;;;5072821;28;20402;-77
2021/04/25 07:42:47;;;;;;;10.45;2.50;;;15.30;99.90;;;;;;5082756;28;20890;-77
2021/04/25 07:45:15;;;;;;;7.43;2.45;;;15.30;99.90;;;;;;5077733;28;20392;-77
2021/04/25 07:47:43;;;;;;;7.57;2.50;;;15.30;99.90;;;;;;5080682;28;20392;-77
2021/04/25 07:50:13;;;;;;;4.68;2.28;;;15.20;99.90;;;;;;5082173;28;20397;-78
2021/04/25 07:52:42;;;;;;;4.32;1.92;;;15.20;99.90;;;;;;5083720;28;20843;-78
2021/04/25 07:55:10;;;;;;;8.35;2.22;;;15.10;99.90;;;;;;5082281;28;20454;-78
2021/04/25 07:57:38;;;;;;;6.97;2.35;;;15.10;99.90;;;;;;5085961;28;20372;-78
2021/04/25 08:00:07;;;;;;;6.53;2.10;;;15.10;99.90;;;;;;5078011;28;20417;-78
2021/04/25 08:02:34;;;;;;;6.93;1.70;;;15.10;99.90;;;;;;5080069;28;20391;-79
2021/04/25 08:05:01;;;;;;;7.93;2.20;;;15.00;99.90;;;;;;5080721;28;20431;-77
2021/04/25 08:07:28;;;;;;;10.48;2.40;;;15.00;99.90;;;;;;5086692;28;20407;-78
2021/04/25 08:09:55;;;;;;;8.52;2.17;;;15.00;99.90;;;;;;5084146;28;20400;-77
2021/04/25 08:12:22;;;;;;;8.52;2.33;;;14.90;99.90;;;;;;5077708;28;20399;-77
2021/04/25 08:14:49;;;;;;;8.48;2.38;;;14.90;99.90;;;;;;5083818;28;20407;-77
2021/04/25 08:17:17;;;;;;;6.13;2.50;;;14.90;99.90;;;;;;5087854;28;20485;-79
2021/04/25 08:19:44;;;;;;;9.40;2.78;;;14.80;99.90;;;;;;5084251;28;20445;-77
2021/04/25 08:22:11;;;;;;;9.30;2.97;;;14.80;99.90;;;;;;5087678;28;20396;-78
2021/04/25 08:24:38;;;;;;;6.88;2.30;;;14.80;99.90;;;;;;5084922;28;20423;-78
2021/04/25 08:27:05;;;;;;;8.25;2.65;;;14.80;99.90;;;;;;5083404;28;20462;-79
2021/04/25 08:29:32;;;;;;;7.15;2.55;;;14.70;99.90;;;;;;5082298;28;20518;-76
2021/04/25 08:32:00;;;;;;;4.83;2.07;;;14.70;99.90;;;;;;5076395;28;20407;-79
2021/04/25 08:34:27;;;;;;;6.93;2.08;;;14.60;99.90;;;;;;5076013;28;20498;-79
2021/04/25 08:36:54;;;;;;;6.88;2.40;;;14.60;99.90;;;;;;5087794;28;20397;-76
2021/04/25 08:39:22;;;;;;;6.10;2.60;;;14.50;99.90;;;;;;5087081;28;20394;-78
2021/04/25 08:41:49;;;;;;;4.47;1.90;;;14.50;99.90;;;;;;5088012;28;20389;-78
2021/04/25 08:44:21;;;;;;;7.65;2.20;;;14.50;99.90;;;;;;5088347;28;20384;-78
2021/04/25 08:46:51;;;;;;;6.40;2.10;;;14.40;99.90;;;;;;5099932;28;20475;-78
2021/04/25 08:49:23;;;;;;;7.97;2.20;;;14.40;99.90;;;;;;5088022;28;20408;-78
2021/04/25 08:51:51;;;;;;;5.43;2.28;;;14.30;99.90;;;;;;5088963;28;20447;-78
2021/04/25 08:54:23;;;;;;;8.45;2.50;;;14.30;99.90;;;;;;5088661;28;20369;-78
2021/04/25 08:56:51;;;;;;;5.72;2.20;;;14.30;99.90;;;;;;5088321;28;20384;-78
2021/04/25 08:59:18;;;;;;;4.75;2.08;;;14.30;99.90;;;;;;5093465;28;20379;-78
2021/04/25 09:01:46;;;;;;;8.73;2.88;;;14.20;99.90;;;;;;5092134;28;20400;-78
2021/04/25 09:04:13;;;;;;;5.30;2.33;;;14.20;99.90;;;;;;5090395;28;20749;-78
2021/04/25 09:07:16;;;;;;;7.80;2.70;;;14.20;99.90;;;;;;5090058;28;20418;-78
2021/04/25 09:09:51;;;;;;;5.18;2.10;;;14.10;99.90;;;;;;5049298;28;20376;-78
2021/04/25 09:12:32;;;;;;;6.63;2.27;;;14.10;99.90;;;;;;5086064;28;20395;-78
2021/04/25 09:15:00;;;;;;;5.97;2.10;;;14.10;99.90;;;;;;5091071;28;20372;-78
2021/04/25 09:17:27;;;;;;;5.60;2.00;;;14.10;99.90;;;;;;5083442;28;20392;-78
2021/04/25 09:19:59;;;;;;;6.78;2.17;;;14.00;99.90;;;;;;5079166;28;20401;-78
2021/04/25 09:22:47;;;;;;;5.68;2.08;;;14.00;99.90;;;;;;5086813;28;20416;-78
2021/04/25 09:25:18;;;;;;;5.75;2.03;;;14.00;99.90;;;;;;5090080;28;20434;-78
2021/04/25 09:27:47;;;;;;;5.25;2.13;;;13.90;99.90;;;;;;5089372;28;20385;-78
2021/04/25 09:30:35;;;;;;;5.07;2.00;;;13.90;99.90;;;;;;5089630;28;20384;-79
2021/04/25 09:33:05;;;;;;;4.13;1.58;;;13.90;99.90;;;;;;5080339;28;20389;-78
2021/04/25 09:35:32;;;;;;;5.22;1.42;;;13.90;99.90;;;;;;5079089;28;20392;-78
2021/04/25 09:38:10;;;;;;;4.85;1.58;;;13.90;99.90;;;;;;5082772;28;20400;-78
2021/04/25 09:40:52;;;;;;;6.53;1.75;;;13.90;99.90;;;;;;5081562;28;20388;-79
2021/04/25 09:43:20;;;;;;;5.65;1.80;;;13.90;99.90;;;;;;5091324;28;20426;-79
2021/04/25 09:45:57;;;;;;;4.70;1.63;;;13.90;99.90;;;;;;5091300;28;20405;-80
2021/04/25 09:48:32;;;;;;;6.40;1.70;;;13.90;99.90;;;;;;5090893;28;20792;-80
2021/04/25 09:51:16;;;;;;;4.85;1.50;;;13.80;99.90;;;;;;5091419;28;20426;-80
2021/04/25 09:53:59;;;;;;;4.78;1.65;;;13.80;99.90;;;;;;5091346;28;20863;-80
2021/04/25 09:56:37;;;;;;;5.07;1.80;;;13.90;99.90;;;;;;5091280;28;20499;-80
2021/04/25 09:59:08;;;;;;;5.47;1.67;;;13.90;99.90;;;;;;5088542;28;20376;-79
2021/04/25 10:01:40;;;;;;;5.70;1.88;;;13.90;99.90;;;;;;5091035;28;20372;-80
2021/04/25 10:04:44;;;;;;;5.45;2.00;;;13.80;99.90;;;;;;5092207;28;20425;-80
2021/04/25 10:07:12;;;;;;;6.05;1.90;;;13.80;99.90;;;;;;5091053;28;20475;-79
2021/04/25 10:09:39;;;;;;;5.07;1.67;;;13.80;99.90;;;;;;5090720;28;20409;-79
2021/04/25 10:12:06;;;;;;;7.10;1.95;;;13.80;99.90;;;;;;5090495;28;20370;-79
2021/04/25 10:14:34;;;;;;;4.32;1.75;;;13.80;99.90;;;;;;5090425;28;20379;-80
2021/04/25 10:17:03;;;;;;;6.78;1.65;;;13.80;99.90;;;;;;5090040;28;20384;-79
2021/04/25 10:19:31;;;;;;;8.03;1.63;;;13.80;99.90;;;;;;5090149;28;20375;-79
2021/04/25 10:21:57;;;;;;;5.75;2.00;;;13.80;99.90;;;;;;5089807;28;20451;-79
2021/04/25 10:24:25;;;;;;;5.40;1.58;;;13.80;99.90;;;;;;5090527;28;20778;-79
2021/04/25 10:27:12;;;;;;;7.05;1.67;;;13.70;99.90;;;;;;5090604;28;20718;-80
2021/04/25 10:30:00;;;;;;;5.80;1.90;;;13.70;99.90;;;;;;5086470;28;20376;-80
2021/04/25 10:32:28;;;;;;;4.75;1.70;;;13.70;99.90;;;;;;5088827;28;20420;-80
2021/04/25 10:35:18;;;;;;;5.57;1.80;;;13.70;99.90;;;;;;5084898;28;20818;-80
2021/04/25 10:37:46;;;;;;;4.55;1.77;;;13.70;99.90;;;;;;5090363;28;20867;-80
2021/04/25 10:40:33;;;;;;;5.35;1.40;;;13.60;99.90;;;;;;5088536;28;20409;-79
2021/04/25 10:43:01;;;;;;;4.72;1.60;;;13.50;99.90;;;;;;5090402;28;20878;-77
2021/04/25 10:45:31;;;;;;;5.50;1.50;;;13.50;99.90;;;;;;5092736;28;20748;-78
2021/04/25 10:48:21;;;;;;;6.97;1.88;;;13.50;99.90;;;;;;5082274;28;20384;-77
2021/04/25 10:51:09;;;;;;;7.63;1.88;;;13.50;99.90;;;;;;5090356;28;20439;-77
2021/04/25 10:53:41;;;;;;;6.03;2.15;;;13.50;99.90;;;;;;5089391;28;20877;-79
2021/04/25 10:56:13;;;;;;;5.55;2.10;;;13.50;99.90;;;;;;5089709;28;20453;-79
2021/04/25 10:58:42;;;;;;;6.63;2.20;;;13.50;99.90;;;;;;5089562;28;20468;-77
2021/04/25 11:01:29;;;;;;;3.72;1.60;;;13.50;99.90;;;;;;5089005;28;20372;-78
2021/04/25 11:03:56;;;;;;;5.55;1.80;;;13.50;99.90;;;;;;5089442;28;20707;-78
2021/04/25 11:06:28;;;;;;;3.67;1.25;;;13.60;99.90;;;;;;5089822;28;20775;-78
2021/04/25 11:08:55;;;;;;;3.95;1.48;;;13.50;99.90;;;;;;5088639;28;20411;-78
2021/04/25 11:11:37;;;;;;;4.07;1.42;;;13.60;99.90;;;;;;5089820;28;20394;-78
2021/04/25 11:14:06;;;;;;;4.88;1.63;;;13.50;99.90;;;;;;5089167;28;20400;-79
2021/04/25 11:16:35;;;;;;;5.13;2.10;;;13.60;99.90;;;;;;5089116;28;20433;-78
2021/04/25 11:19:07;;;;;;;5.80;2.20;;;13.60;99.90;;;;;;5089505;28;20389;-79
2021/04/25 11:24:03;;;;;;;3.83;2.17;;;13.60;99.90;;;;;;5088750;28;20457;-78
2021/04/25 11:26:36;;;;;;;5.45;2.40;;;13.60;99.90;;;;;;5087060;28;20784;-78
2021/04/25 11:29:12;;;;;;;6.70;2.63;;;13.60;99.90;;;;;;5089335;28;20741;-78
2021/04/25 11:34:26;;;;;;;6.47;2.10;;;13.50;99.90;;;;;;5088228;28;20376;-78
2021/04/25 11:37:05;;;;;;;7.80;2.05;;;13.50;99.90;;;;;;5088234;28;20391;-77
2021/04/25 11:39:34;;;;;;;6.07;1.90;;;13.50;99.90;;;;;;5086037;28;20386;-78
2021/04/25 11:42:02;;;;;;;6.03;2.10;;;13.50;99.90;;;;;;5082987;28;20848;-78
2021/04/25 11:44:30;;;;;;;5.32;1.95;;;13.40;99.90;;;;;;5088598;28;20385;-78
2021/04/25 11:46:59;;;;;;;4.07;1.60;;;13.30;99.90;;;;;;5089087;28;20483;-78
2021/04/25 11:49:38;;;;;;;6.40;1.80;;;13.30;99.90;;;;;;5086846;28;20873;-78
2021/04/25 11:52:14;;;;;;;6.85;1.60;;;13.20;99.90;;;;;;5080884;28;20396;-78
2021/04/25 11:55:02;;;;;;;6.13;1.73;;;13.20;99.90;;;;;;5094739;28;20426;-78
2021/04/25 11:57:31;;;;;;;7.43;1.85;;;13.20;99.90;;;;;;5088131;28;20464;-78
2021/04/25 11:59:58;;;;;;;7.72;2.25;;;13.20;99.90;;;;;;5088023;28;20436;-79
2021/04/25 12:02:29;;;;;;;5.28;1.48;;;13.10;99.90;;;;;;5088219;28;20380;-79
2021/04/25 12:04:58;;;;;;;4.30;1.73;;;13.00;99.90;;;;;;5079254;28;20410;-78
2021/04/25 12:07:40;;;;;;;6.85;2.03;;;13.00;99.90;;;;;;5087090;28;20825;-78
2021/04/25 12:10:12;;;;;;;6.93;2.28;;;13.00;99.90;;;;;;5088932;28;20899;-79
2021/04/25 12:13:09;;;;;;;8.80;2.83;;;12.90;99.90;;;;;;5088227;28;20396;-78
2021/04/25 12:15:45;;;;;;;7.75;2.92;;;12.90;99.90;;;;;;5108392;28;20378;-79
2021/04/25 12:18:14;;;;;;;8.73;3.30;;;12.90;99.90;;;;;;5088995;28;20894;-78
2021/04/25 12:20:46;;;;;;;5.90;2.90;;;12.90;99.90;;;;;;5088293;28;20400;-78
2021/04/25 12:23:16;;;;;;;7.77;3.30;;;13.00;99.90;;;;;;5087134;28;20387;-78
2021/04/25 12:25:44;;;;;;;7.45;3.13;;;13.00;99.90;;;;;;5082629;28;20557;-78
2021/04/25 12:28:11;;;;;;;7.20;3.30;;;12.90;99.90;;;;;;5070370;28;20456;-78
2021/04/25 12:30:44;;;;;;;6.97;2.97;;;12.90;99.90;;;;;;5087576;28;20424;-78
2021/04/25 12:33:11;;;;;;;6.15;2.67;;;12.90;99.90;;;;;;5088065;28;20376;-78
2021/04/25 12:35:41;;;;;;;5.35;2.60;;;13.00;99.90;;;;;;5084639;28;20475;-77
2021/04/25 12:38:29;;;;;;;5.88;2.75;;;13.00;99.90;;;;;;5089936;28;20754;-78
2021/04/25 12:40:59;;;;;;;8.10;2.90;;;13.00;99.90;;;;;;5087590;28;20407;-78
2021/04/25 12:43:29;;;;;;;8.35;3.15;;;13.00;99.90;;;;;;5092292;28;20886;-79
2021/04/25 12:45:57;;;;;;;10.68;3.38;;;12.90;99.90;;;;;;5087489;28;20493;-78
2021/04/25 12:48:32;;;;;;;5.78;3.00;;;12.90;99.90;;;;;;5072284;28;20381;-78
2021/04/25 12:51:09;;;;;;;6.28;2.97;;;12.90;99.90;;;;;;5083488;28;20400;-79
2021/04/25 12:53:43;;;;;;;6.00;3.30;;;12.90;99.90;;;;;;5091491;28;20456;-78
2021/04/25 12:56:27;;;;;;;7.60;2.78;;;13.00;99.90;;;;;;5091009;28;20388;-78
2021/04/25 12:59:07;;;;;;;7.15;3.30;;;13.10;99.90;;;;;;5090214;28;20404;-78
2021/04/25 13:01:38;;;;;;;8.30;3.70;;;13.10;99.90;;;;;;5090558;28;20380;-78